sensor_id;sensor_type;location;lat;lon;timestamp;P1;durP1;ratioP1;P2;durP2;ratioP2
11960;SDS011;6040;49.358;11.140;2023-02-28T00:00:28;3.23;;;1.93;;
11960;SDS011;6040;49.358;11.140;2023-02-28T00:02:55;3.10;;;2.23;;
11960;SDS011;6040;49.358;11.140;2023-02-28T00:05:22;2.67;;;2.07;;
11960;SDS011;6040;49.358;11.140;2023-02-28T00:07:50;4.13;;;2.37;;
11960;SDS011;6040;49.358;11.140;2023-02-28T00:10:19;8.77;;;2.27;;
11960;SDS011;6040;49.358;11.140;2023-02-28T00:12:48;3.17;;;1.80;;
11960;SDS011;6040;49.358;11.140;2023-02-28T00:15:15;3.23;;;2.30;;
11960;SDS011;6040;49.358;11.140;2023-02-28T00:17:42;3.53;;;2.30;;
11960;SDS011;6040;49.358;11.140;2023-02-28T00:20:10;4.53;;;2.40;;
11960;SDS011;6040;49.358;11.140;2023-02-28T00:22:39;2.73;;;2.10;;
11960;SDS011;6040;49.358;11.140;2023-02-28T00:25:08;2.10;;;1.80;;
11960;SDS011;6040;49.358;11.140;2023-02-28T00:27:37;3.33;;;2.17;;
11960;SDS011;6040;49.358;11.140;2023-02-28T00:30:08;4.13;;;2.50;;
11960;SDS011;6040;49.358;11.140;2023-02-28T00:32:37;2.33;;;2.13;;
11960;SDS011;6040;49.358;11.140;2023-02-28T00:35:04;4.03;;;2.40;;
11960;SDS011;6040;49.358;11.140;2023-02-28T00:37:32;2.43;;;2.23;;
11960;SDS011;6040;49.358;11.140;2023-02-28T00:39:58;2.77;;;2.10;;
11960;SDS011;6040;49.358;11.140;2023-02-28T00:42:26;2.53;;;2.27;;
11960;SDS011;6040;49.358;11.140;2023-02-28T00:44:54;4.63;;;2.47;;
11960;SDS011;6040;49.358;11.140;2023-02-28T00:47:21;4.53;;;2.60;;
11960;SDS011;6040;49.358;11.140;2023-02-28T00:49:48;3.37;;;2.53;;
11960;SDS011;6040;49.358;11.140;2023-02-28T00:52:14;4.87;;;2.47;;
11960;SDS011;6040;49.358;11.140;2023-02-28T00:54:41;4.90;;;3.07;;
11960;SDS011;6040;49.358;11.140;2023-02-28T00:57:08;3.00;;;2.37;;
11960;SDS011;6040;49.358;11.140;2023-02-28T00:59:38;3.07;;;2.27;;
11960;SDS011;6040;49.358;11.140;2023-02-28T01:02:06;2.70;;;2.23;;
11960;SDS011;6040;49.358;11.140;2023-02-28T01:04:33;5.47;;;2.63;;
11960;SDS011;6040;49.358;11.140;2023-02-28T01:07:00;3.23;;;2.80;;
11960;SDS011;6040;49.358;11.140;2023-02-28T01:09:29;6.63;;;2.43;;
11960;SDS011;6040;49.358;11.140;2023-02-28T01:11:56;3.77;;;2.63;;
11960;SDS011;6040;49.358;11.140;2023-02-28T01:14:23;7.20;;;3.03;;
11960;SDS011;6040;49.358;11.140;2023-02-28T01:16:50;4.53;;;2.67;;
11960;SDS011;6040;49.358;11.140;2023-02-28T01:19:18;5.27;;;2.57;;
11960;SDS011;6040;49.358;11.140;2023-02-28T01:21:45;3.77;;;2.87;;
11960;SDS011;6040;49.358;11.140;2023-02-28T01:24:12;4.53;;;2.60;;
11960;SDS011;6040;49.358;11.140;2023-02-28T01:26:39;4.10;;;2.77;;
11960;SDS011;6040;49.358;11.140;2023-02-28T01:29:05;4.27;;;3.00;;
11960;SDS011;6040;49.358;11.140;2023-02-28T01:31:32;4.90;;;2.67;;
11960;SDS011;6040;49.358;11.140;2023-02-28T01:33:59;3.03;;;2.40;;
11960;SDS011;6040;49.358;11.140;2023-02-28T01:36:27;3.03;;;2.43;;
11960;SDS011;6040;49.358;11.140;2023-02-28T01:38:54;4.57;;;2.77;;
11960;SDS011;6040;49.358;11.140;2023-02-28T01:41:22;3.83;;;2.67;;
11960;SDS011;6040;49.358;11.140;2023-02-28T01:43:55;3.17;;;2.50;;
11960;SDS011;6040;49.358;11.140;2023-02-28T01:46:23;3.63;;;2.77;;
11960;SDS011;6040;49.358;11.140;2023-02-28T01:48:52;4.73;;;2.60;;
11960;SDS011;6040;49.358;11.140;2023-02-28T01:51:25;6.97;;;2.87;;
11960;SDS011;6040;49.358;11.140;2023-02-28T01:53:58;3.90;;;2.90;;
11960;SDS011;6040;49.358;11.140;2023-02-28T01:56:27;4.30;;;2.47;;
11960;SDS011;6040;49.358;11.140;2023-02-28T01:58:57;3.90;;;2.63;;
11960;SDS011;6040;49.358;11.140;2023-02-28T02:01:25;5.13;;;2.93;;
11960;SDS011;6040;49.358;11.140;2023-02-28T02:03:54;6.00;;;2.63;;
11960;SDS011;6040;49.358;11.140;2023-02-28T02:06:23;3.50;;;2.47;;
11960;SDS011;6040;49.358;11.140;2023-02-28T02:08:55;4.47;;;2.70;;
11960;SDS011;6040;49.358;11.140;2023-02-28T02:11:22;6.03;;;2.93;;
11960;SDS011;6040;49.358;11.140;2023-02-28T02:16:53;4.43;;;2.53;;
11960;SDS011;6040;49.358;11.140;2023-02-28T02:19:36;6.33;;;3.00;;
11960;SDS011;6040;49.358;11.140;2023-02-28T02:25:22;5.83;;;3.20;;
11960;SDS011;6040;49.358;11.140;2023-02-28T02:27:59;5.53;;;2.80;;
11960;SDS011;6040;49.358;11.140;2023-02-28T02:37:15;6.23;;;3.10;;
11960;SDS011;6040;49.358;11.140;2023-02-28T02:39:58;5.37;;;2.90;;
11960;SDS011;6040;49.358;11.140;2023-02-28T02:42:31;4.83;;;2.43;;
11960;SDS011;6040;49.358;11.140;2023-02-28T02:45:07;5.87;;;2.93;;
11960;SDS011;6040;49.358;11.140;2023-02-28T02:47:37;5.30;;;3.03;;
11960;SDS011;6040;49.358;11.140;2023-02-28T02:50:07;5.90;;;3.40;;
11960;SDS011;6040;49.358;11.140;2023-02-28T02:52:40;3.43;;;2.60;;
11960;SDS011;6040;49.358;11.140;2023-02-28T02:55:11;6.43;;;2.70;;
11960;SDS011;6040;49.358;11.140;2023-02-28T02:57:40;5.13;;;3.23;;
11960;SDS011;6040;49.358;11.140;2023-02-28T03:00:12;3.27;;;2.63;;
11960;SDS011;6040;49.358;11.140;2023-02-28T03:02:43;4.70;;;2.70;;
11960;SDS011;6040;49.358;11.140;2023-02-28T03:05:14;4.73;;;2.73;;
11960;SDS011;6040;49.358;11.140;2023-02-28T03:07:46;4.50;;;3.10;;
11960;SDS011;6040;49.358;11.140;2023-02-28T03:10:29;3.37;;;2.30;;
11960;SDS011;6040;49.358;11.140;2023-02-28T03:13:01;8.30;;;2.80;;
11960;SDS011;6040;49.358;11.140;2023-02-28T03:15:38;6.37;;;3.10;;
11960;SDS011;6040;49.358;11.140;2023-02-28T03:18:22;4.80;;;2.90;;
11960;SDS011;6040;49.358;11.140;2023-02-28T03:20:58;4.73;;;3.00;;
11960;SDS011;6040;49.358;11.140;2023-02-28T03:23:31;3.47;;;2.73;;
11960;SDS011;6040;49.358;11.140;2023-02-28T03:26:06;6.57;;;2.83;;
11960;SDS011;6040;49.358;11.140;2023-02-28T03:28:40;4.37;;;2.93;;
11960;SDS011;6040;49.358;11.140;2023-02-28T03:31:12;6.00;;;3.23;;
11960;SDS011;6040;49.358;11.140;2023-02-28T03:33:44;7.10;;;3.27;;
11960;SDS011;6040;49.358;11.140;2023-02-28T03:36:21;5.00;;;3.03;;
11960;SDS011;6040;49.358;11.140;2023-02-28T03:38:53;7.70;;;3.33;;
11960;SDS011;6040;49.358;11.140;2023-02-28T03:41:23;4.73;;;3.03;;
11960;SDS011;6040;49.358;11.140;2023-02-28T03:43:57;6.57;;;3.60;;
11960;SDS011;6040;49.358;11.140;2023-02-28T03:46:27;6.13;;;3.30;;
11960;SDS011;6040;49.358;11.140;2023-02-28T03:49:00;5.43;;;3.30;;
11960;SDS011;6040;49.358;11.140;2023-02-28T03:51:32;3.13;;;2.80;;
11960;SDS011;6040;49.358;11.140;2023-02-28T03:54:02;5.33;;;3.30;;
11960;SDS011;6040;49.358;11.140;2023-02-28T03:56:33;6.07;;;3.20;;
11960;SDS011;6040;49.358;11.140;2023-02-28T03:59:04;4.13;;;3.23;;
11960;SDS011;6040;49.358;11.140;2023-02-28T04:01:36;5.03;;;3.57;;
11960;SDS011;6040;49.358;11.140;2023-02-28T04:04:06;5.03;;;3.27;;
11960;SDS011;6040;49.358;11.140;2023-02-28T04:06:35;4.80;;;3.80;;
11960;SDS011;6040;49.358;11.140;2023-02-28T04:09:02;5.33;;;3.80;;
11960;SDS011;6040;49.358;11.140;2023-02-28T04:11:32;5.93;;;3.83;;
11960;SDS011;6040;49.358;11.140;2023-02-28T04:14:01;3.77;;;2.80;;
11960;SDS011;6040;49.358;11.140;2023-02-28T04:16:28;5.60;;;3.83;;
11960;SDS011;6040;49.358;11.140;2023-02-28T04:18:55;7.07;;;3.47;;
11960;SDS011;6040;49.358;11.140;2023-02-28T04:21:27;5.10;;;3.67;;
11960;SDS011;6040;49.358;11.140;2023-02-28T04:23:55;5.73;;;3.70;;
11960;SDS011;6040;49.358;11.140;2023-02-28T04:26:25;6.30;;;4.10;;
11960;SDS011;6040;49.358;11.140;2023-02-28T04:28:54;4.67;;;3.70;;
11960;SDS011;6040;49.358;11.140;2023-02-28T04:31:21;7.50;;;4.47;;
11960;SDS011;6040;49.358;11.140;2023-02-28T04:33:48;5.47;;;3.77;;
11960;SDS011;6040;49.358;11.140;2023-02-28T04:36:15;5.63;;;3.70;;
11960;SDS011;6040;49.358;11.140;2023-02-28T04:38:42;5.33;;;3.53;;
11960;SDS011;6040;49.358;11.140;2023-02-28T04:41:11;5.60;;;3.53;;
11960;SDS011;6040;49.358;11.140;2023-02-28T04:43:38;6.43;;;3.87;;
11960;SDS011;6040;49.358;11.140;2023-02-28T04:46:05;5.27;;;3.77;;
11960;SDS011;6040;49.358;11.140;2023-02-28T04:48:33;7.43;;;4.70;;
11960;SDS011;6040;49.358;11.140;2023-02-28T04:51:04;5.67;;;3.90;;
11960;SDS011;6040;49.358;11.140;2023-02-28T04:53:32;8.07;;;4.23;;
11960;SDS011;6040;49.358;11.140;2023-02-28T04:55:59;5.77;;;3.80;;
11960;SDS011;6040;49.358;11.140;2023-02-28T04:58:28;5.37;;;3.90;;
11960;SDS011;6040;49.358;11.140;2023-02-28T05:01:00;9.47;;;4.57;;
11960;SDS011;6040;49.358;11.140;2023-02-28T05:03:28;7.73;;;4.30;;
11960;SDS011;6040;49.358;11.140;2023-02-28T05:05:55;7.20;;;4.13;;
11960;SDS011;6040;49.358;11.140;2023-02-28T05:08:22;6.23;;;3.80;;
11960;SDS011;6040;49.358;11.140;2023-02-28T05:10:50;6.30;;;4.73;;
11960;SDS011;6040;49.358;11.140;2023-02-28T05:13:17;7.90;;;4.60;;
11960;SDS011;6040;49.358;11.140;2023-02-28T05:15:45;10.10;;;4.30;;
11960;SDS011;6040;49.358;11.140;2023-02-28T05:18:11;6.47;;;3.80;;
11960;SDS011;6040;49.358;11.140;2023-02-28T05:20:38;5.97;;;4.20;;
11960;SDS011;6040;49.358;11.140;2023-02-28T05:23:05;7.07;;;4.30;;
11960;SDS011;6040;49.358;11.140;2023-02-28T05:25:32;6.97;;;4.17;;
11960;SDS011;6040;49.358;11.140;2023-02-28T05:27:59;6.77;;;4.20;;
11960;SDS011;6040;49.358;11.140;2023-02-28T05:30:26;9.10;;;5.00;;
11960;SDS011;6040;49.358;11.140;2023-02-28T05:32:54;8.17;;;4.17;;
11960;SDS011;6040;49.358;11.140;2023-02-28T05:35:21;6.00;;;4.40;;
11960;SDS011;6040;49.358;11.140;2023-02-28T05:37:48;7.50;;;4.90;;
11960;SDS011;6040;49.358;11.140;2023-02-28T05:40:15;7.63;;;4.30;;
11960;SDS011;6040;49.358;11.140;2023-02-28T05:42:42;9.63;;;4.80;;
11960;SDS011;6040;49.358;11.140;2023-02-28T05:45:09;10.17;;;4.90;;
11960;SDS011;6040;49.358;11.140;2023-02-28T05:47:36;7.17;;;4.50;;
11960;SDS011;6040;49.358;11.140;2023-02-28T05:50:05;7.43;;;4.60;;
11960;SDS011;6040;49.358;11.140;2023-02-28T05:52:34;9.60;;;4.97;;
11960;SDS011;6040;49.358;11.140;2023-02-28T05:55:01;6.50;;;4.87;;
11960;SDS011;6040;49.358;11.140;2023-02-28T05:57:28;8.23;;;4.93;;
11960;SDS011;6040;49.358;11.140;2023-02-28T05:59:54;10.57;;;4.90;;
11960;SDS011;6040;49.358;11.140;2023-02-28T06:02:21;5.90;;;4.57;;
11960;SDS011;6040;49.358;11.140;2023-02-28T06:04:48;8.20;;;4.60;;
11960;SDS011;6040;49.358;11.140;2023-02-28T06:07:16;10.73;;;4.80;;
11960;SDS011;6040;49.358;11.140;2023-02-28T06:09:43;6.80;;;4.70;;
11960;SDS011;6040;49.358;11.140;2023-02-28T06:12:10;7.53;;;4.60;;
11960;SDS011;6040;49.358;11.140;2023-02-28T06:14:37;7.27;;;4.80;;
11960;SDS011;6040;49.358;11.140;2023-02-28T06:17:04;8.97;;;5.00;;
11960;SDS011;6040;49.358;11.140;2023-02-28T06:19:31;8.77;;;4.67;;
11960;SDS011;6040;49.358;11.140;2023-02-28T06:22:03;8.43;;;3.97;;
11960;SDS011;6040;49.358;11.140;2023-02-28T06:24:32;7.77;;;4.80;;
11960;SDS011;6040;49.358;11.140;2023-02-28T06:26:59;7.93;;;4.90;;
11960;SDS011;6040;49.358;11.140;2023-02-28T06:29:29;10.50;;;5.00;;
11960;SDS011;6040;49.358;11.140;2023-02-28T06:31:56;9.20;;;4.83;;
11960;SDS011;6040;49.358;11.140;2023-02-28T06:34:23;13.03;;;5.80;;
11960;SDS011;6040;49.358;11.140;2023-02-28T06:36:50;8.57;;;5.03;;
11960;SDS011;6040;49.358;11.140;2023-02-28T06:39:18;8.10;;;4.90;;
11960;SDS011;6040;49.358;11.140;2023-02-28T06:41:46;7.20;;;4.80;;
11960;SDS011;6040;49.358;11.140;2023-02-28T06:44:14;6.67;;;4.67;;
11960;SDS011;6040;49.358;11.140;2023-02-28T06:46:43;6.90;;;4.60;;
11960;SDS011;6040;49.358;11.140;2023-02-28T06:49:11;6.57;;;3.97;;
11960;SDS011;6040;49.358;11.140;2023-02-28T06:51:39;8.50;;;4.30;;
11960;SDS011;6040;49.358;11.140;2023-02-28T06:54:10;5.27;;;4.07;;
11960;SDS011;6040;49.358;11.140;2023-02-28T06:56:38;5.83;;;4.50;;
11960;SDS011;6040;49.358;11.140;2023-02-28T06:59:07;6.37;;;4.20;;
11960;SDS011;6040;49.358;11.140;2023-02-28T07:01:34;6.33;;;4.23;;
11960;SDS011;6040;49.358;11.140;2023-02-28T07:04:00;6.23;;;4.10;;
11960;SDS011;6040;49.358;11.140;2023-02-28T07:06:29;5.73;;;4.57;;
11960;SDS011;6040;49.358;11.140;2023-02-28T07:08:56;5.87;;;4.23;;
11960;SDS011;6040;49.358;11.140;2023-02-28T07:11:23;6.83;;;4.63;;
11960;SDS011;6040;49.358;11.140;2023-02-28T07:13:52;4.50;;;3.90;;
11960;SDS011;6040;49.358;11.140;2023-02-28T07:16:21;6.70;;;4.80;;
11960;SDS011;6040;49.358;11.140;2023-02-28T07:18:49;7.20;;;4.87;;
11960;SDS011;6040;49.358;11.140;2023-02-28T07:21:17;5.80;;;4.30;;
11960;SDS011;6040;49.358;11.140;2023-02-28T07:23:44;4.80;;;3.57;;
11960;SDS011;6040;49.358;11.140;2023-02-28T07:26:12;6.50;;;4.47;;
11960;SDS011;6040;49.358;11.140;2023-02-28T07:28:42;6.93;;;4.17;;
11960;SDS011;6040;49.358;11.140;2023-02-28T07:31:10;8.57;;;4.53;;
11960;SDS011;6040;49.358;11.140;2023-02-28T07:33:40;6.17;;;3.97;;
11960;SDS011;6040;49.358;11.140;2023-02-28T07:36:08;8.00;;;4.70;;
11960;SDS011;6040;49.358;11.140;2023-02-28T07:38:40;7.57;;;4.63;;
11960;SDS011;6040;49.358;11.140;2023-02-28T07:41:08;5.97;;;4.30;;
11960;SDS011;6040;49.358;11.140;2023-02-28T07:43:35;6.70;;;4.83;;
11960;SDS011;6040;49.358;11.140;2023-02-28T07:46:03;6.33;;;4.40;;
11960;SDS011;6040;49.358;11.140;2023-02-28T07:48:31;4.77;;;3.67;;
11960;SDS011;6040;49.358;11.140;2023-02-28T07:50:59;6.83;;;5.07;;
11960;SDS011;6040;49.358;11.140;2023-02-28T07:53:27;6.37;;;4.67;;
11960;SDS011;6040;49.358;11.140;2023-02-28T07:55:54;6.67;;;4.90;;
11960;SDS011;6040;49.358;11.140;2023-02-28T07:58:21;6.93;;;4.50;;
11960;SDS011;6040;49.358;11.140;2023-02-28T08:00:48;8.57;;;5.10;;
11960;SDS011;6040;49.358;11.140;2023-02-28T08:03:16;8.23;;;5.00;;
11960;SDS011;6040;49.358;11.140;2023-02-28T08:05:43;10.23;;;5.40;;
11960;SDS011;6040;49.358;11.140;2023-02-28T08:08:12;7.93;;;4.53;;
11960;SDS011;6040;49.358;11.140;2023-02-28T08:10:39;6.50;;;4.33;;
11960;SDS011;6040;49.358;11.140;2023-02-28T08:13:06;5.23;;;4.03;;
11960;SDS011;6040;49.358;11.140;2023-02-28T08:15:33;5.87;;;4.13;;
11960;SDS011;6040;49.358;11.140;2023-02-28T08:18:01;7.47;;;4.70;;
11960;SDS011;6040;49.358;11.140;2023-02-28T08:20:28;7.30;;;5.47;;
11960;SDS011;6040;49.358;11.140;2023-02-28T08:22:54;9.03;;;5.50;;
11960;SDS011;6040;49.358;11.140;2023-02-28T08:25:23;6.90;;;5.03;;
11960;SDS011;6040;49.358;11.140;2023-02-28T08:27:50;9.43;;;5.70;;
11960;SDS011;6040;49.358;11.140;2023-02-28T08:30:18;11.07;;;5.87;;
11960;SDS011;6040;49.358;11.140;2023-02-28T08:32:44;9.27;;;5.53;;
11960;SDS011;6040;49.358;11.140;2023-02-28T08:35:11;6.67;;;5.30;;
11960;SDS011;6040;49.358;11.140;2023-02-28T08:37:38;7.90;;;5.57;;
11960;SDS011;6040;49.358;11.140;2023-02-28T08:40:05;8.10;;;4.60;;
11960;SDS011;6040;49.358;11.140;2023-02-28T08:42:35;6.13;;;3.97;;
11960;SDS011;6040;49.358;11.140;2023-02-28T08:45:02;4.67;;;3.00;;
11960;SDS011;6040;49.358;11.140;2023-02-28T08:47:29;7.93;;;5.10;;
11960;SDS011;6040;49.358;11.140;2023-02-28T08:49:56;6.87;;;5.10;;
11960;SDS011;6040;49.358;11.140;2023-02-28T08:52:23;7.53;;;4.90;;
11960;SDS011;6040;49.358;11.140;2023-02-28T08:54:49;4.53;;;3.23;;
11960;SDS011;6040;49.358;11.140;2023-02-28T08:57:16;8.20;;;5.20;;
11960;SDS011;6040;49.358;11.140;2023-02-28T08:59:44;7.03;;;4.37;;
11960;SDS011;6040;49.358;11.140;2023-02-28T09:02:12;6.93;;;4.87;;
11960;SDS011;6040;49.358;11.140;2023-02-28T09:04:39;7.70;;;5.17;;
11960;SDS011;6040;49.358;11.140;2023-02-28T09:07:06;8.40;;;5.57;;
11960;SDS011;6040;49.358;11.140;2023-02-28T09:09:33;5.23;;;4.33;;
11960;SDS011;6040;49.358;11.140;2023-02-28T09:12:00;6.87;;;4.47;;
11960;SDS011;6040;49.358;11.140;2023-02-28T09:14:27;6.70;;;5.03;;
11960;SDS011;6040;49.358;11.140;2023-02-28T09:16:55;7.90;;;4.97;;
11960;SDS011;6040;49.358;11.140;2023-02-28T09:19:22;6.40;;;4.87;;
11960;SDS011;6040;49.358;11.140;2023-02-28T09:21:48;7.57;;;5.90;;
11960;SDS011;6040;49.358;11.140;2023-02-28T09:24:15;6.80;;;5.13;;
11960;SDS011;6040;49.358;11.140;2023-02-28T09:26:43;6.70;;;5.07;;
11960;SDS011;6040;49.358;11.140;2023-02-28T09:29:10;8.63;;;5.30;;
11960;SDS011;6040;49.358;11.140;2023-02-28T09:31:37;8.47;;;5.73;;
11960;SDS011;6040;49.358;11.140;2023-02-28T09:34:05;7.77;;;5.47;;
11960;SDS011;6040;49.358;11.140;2023-02-28T09:36:32;6.97;;;5.53;;
11960;SDS011;6040;49.358;11.140;2023-02-28T09:39:00;7.83;;;5.40;;
11960;SDS011;6040;49.358;11.140;2023-02-28T09:41:27;10.80;;;5.70;;
11960;SDS011;6040;49.358;11.140;2023-02-28T09:44:04;9.97;;;5.97;;
11960;SDS011;6040;49.358;11.140;2023-02-28T09:46:37;7.43;;;5.47;;
11960;SDS011;6040;49.358;11.140;2023-02-28T09:49:10;4.87;;;3.63;;
11960;SDS011;6040;49.358;11.140;2023-02-28T09:51:43;7.93;;;5.93;;
11960;SDS011;6040;49.358;11.140;2023-02-28T09:54:16;7.33;;;5.27;;
11960;SDS011;6040;49.358;11.140;2023-02-28T09:56:45;7.67;;;5.27;;
11960;SDS011;6040;49.358;11.140;2023-02-28T09:59:20;6.40;;;4.87;;
11960;SDS011;6040;49.358;11.140;2023-02-28T10:01:57;9.73;;;5.77;;
11960;SDS011;6040;49.358;11.140;2023-02-28T10:04:36;6.43;;;5.17;;
11960;SDS011;6040;49.358;11.140;2023-02-28T10:07:13;8.50;;;5.20;;
11960;SDS011;6040;49.358;11.140;2023-02-28T10:09:48;7.97;;;5.50;;
11960;SDS011;6040;49.358;11.140;2023-02-28T10:12:19;5.90;;;4.80;;
11960;SDS011;6040;49.358;11.140;2023-02-28T10:14:47;10.83;;;6.70;;
11960;SDS011;6040;49.358;11.140;2023-02-28T10:17:18;11.37;;;5.60;;
11960;SDS011;6040;49.358;11.140;2023-02-28T10:19:51;35.20;;;20.50;;
11960;SDS011;6040;49.358;11.140;2023-02-28T10:22:24;8.50;;;6.13;;
11960;SDS011;6040;49.358;11.140;2023-02-28T10:24:55;14.77;;;9.23;;
11960;SDS011;6040;49.358;11.140;2023-02-28T10:27:28;11.27;;;7.93;;
11960;SDS011;6040;49.358;11.140;2023-02-28T10:29:57;10.83;;;7.73;;
11960;SDS011;6040;49.358;11.140;2023-02-28T10:32:27;12.23;;;7.70;;
11960;SDS011;6040;49.358;11.140;2023-02-28T10:34:58;13.73;;;10.27;;
11960;SDS011;6040;49.358;11.140;2023-02-28T10:37:30;13.07;;;7.57;;
11960;SDS011;6040;49.358;11.140;2023-02-28T10:39:57;15.23;;;10.97;;
11960;SDS011;6040;49.358;11.140;2023-02-28T10:42:25;23.47;;;14.77;;
11960;SDS011;6040;49.358;11.140;2023-02-28T10:45:06;10.57;;;7.37;;
11960;SDS011;6040;49.358;11.140;2023-02-28T10:47:38;10.73;;;7.03;;
11960;SDS011;6040;49.358;11.140;2023-02-28T10:50:28;9.13;;;6.40;;
11960;SDS011;6040;49.358;11.140;2023-02-28T10:53:05;12.33;;;7.60;;
11960;SDS011;6040;49.358;11.140;2023-02-28T10:55:56;16.53;;;9.40;;
11960;SDS011;6040;49.358;11.140;2023-02-28T10:58:24;40.87;;;22.27;;
11960;SDS011;6040;49.358;11.140;2023-02-28T11:00:53;7.77;;;5.17;;
11960;SDS011;6040;49.358;11.140;2023-02-28T11:03:24;6.80;;;5.40;;
11960;SDS011;6040;49.358;11.140;2023-02-28T11:05:57;8.00;;;4.70;;
11960;SDS011;6040;49.358;11.140;2023-02-28T11:08:25;9.17;;;5.60;;
11960;SDS011;6040;49.358;11.140;2023-02-28T11:10:55;6.90;;;5.17;;
11960;SDS011;6040;49.358;11.140;2023-02-28T11:13:25;7.33;;;5.10;;
11960;SDS011;6040;49.358;11.140;2023-02-28T11:15:55;8.83;;;6.03;;
11960;SDS011;6040;49.358;11.140;2023-02-28T11:18:27;10.97;;;5.97;;
11960;SDS011;6040;49.358;11.140;2023-02-28T11:20:58;6.83;;;5.20;;
11960;SDS011;6040;49.358;11.140;2023-02-28T11:23:27;8.93;;;5.53;;
11960;SDS011;6040;49.358;11.140;2023-02-28T11:25:57;7.03;;;5.43;;
11960;SDS011;6040;49.358;11.140;2023-02-28T11:28:28;7.63;;;5.60;;
11960;SDS011;6040;49.358;11.140;2023-02-28T11:31:01;7.07;;;5.60;;
11960;SDS011;6040;49.358;11.140;2023-02-28T11:33:31;8.90;;;5.77;;
11960;SDS011;6040;49.358;11.140;2023-02-28T11:36:00;9.00;;;6.13;;
11960;SDS011;6040;49.358;11.140;2023-02-28T11:38:30;8.17;;;5.67;;
11960;SDS011;6040;49.358;11.140;2023-02-28T11:41:05;9.33;;;5.47;;
11960;SDS011;6040;49.358;11.140;2023-02-28T11:43:48;7.70;;;5.37;;
11960;SDS011;6040;49.358;11.140;2023-02-28T11:46:33;7.27;;;4.90;;
11960;SDS011;6040;49.358;11.140;2023-02-28T11:49:10;7.50;;;5.50;;
11960;SDS011;6040;49.358;11.140;2023-02-28T11:51:51;7.47;;;4.47;;
11960;SDS011;6040;49.358;11.140;2023-02-28T11:54:35;8.00;;;5.37;;
11960;SDS011;6040;49.358;11.140;2023-02-28T11:57:23;5.40;;;4.33;;
11960;SDS011;6040;49.358;11.140;2023-02-28T12:00:10;7.47;;;4.33;;
11960;SDS011;6040;49.358;11.140;2023-02-28T12:02:50;8.47;;;4.03;;
11960;SDS011;6040;49.358;11.140;2023-02-28T12:05:26;10.73;;;5.50;;
11960;SDS011;6040;49.358;11.140;2023-02-28T12:08:03;6.73;;;5.27;;
11960;SDS011;6040;49.358;11.140;2023-02-28T12:10:44;7.30;;;5.30;;
11960;SDS011;6040;49.358;11.140;2023-02-28T12:13:24;8.63;;;5.30;;
11960;SDS011;6040;49.358;11.140;2023-02-28T12:15:59;7.03;;;5.53;;
11960;SDS011;6040;49.358;11.140;2023-02-28T12:18:55;9.50;;;6.00;;
11960;SDS011;6040;49.358;11.140;2023-02-28T12:21:31;9.43;;;5.87;;
11960;SDS011;6040;49.358;11.140;2023-02-28T12:26:57;8.67;;;5.53;;
11960;SDS011;6040;49.358;11.140;2023-02-28T12:29:28;8.97;;;5.93;;
11960;SDS011;6040;49.358;11.140;2023-02-28T12:31:58;7.67;;;4.60;;
11960;SDS011;6040;49.358;11.140;2023-02-28T12:34:31;8.10;;;5.93;;
11960;SDS011;6040;49.358;11.140;2023-02-28T12:37:04;8.40;;;5.70;;
11960;SDS011;6040;49.358;11.140;2023-02-28T12:39:37;7.87;;;6.13;;
11960;SDS011;6040;49.358;11.140;2023-02-28T12:42:10;8.80;;;5.70;;
11960;SDS011;6040;49.358;11.140;2023-02-28T12:44:44;7.30;;;5.77;;
11960;SDS011;6040;49.358;11.140;2023-02-28T12:47:15;7.40;;;5.57;;
11960;SDS011;6040;49.358;11.140;2023-02-28T12:49:45;10.03;;;6.00;;
11960;SDS011;6040;49.358;11.140;2023-02-28T12:52:17;11.87;;;6.23;;
11960;SDS011;6040;49.358;11.140;2023-02-28T12:54:49;6.63;;;5.63;;
11960;SDS011;6040;49.358;11.140;2023-02-28T12:57:22;8.40;;;5.40;;
11960;SDS011;6040;49.358;11.140;2023-02-28T12:59:57;7.97;;;5.33;;
11960;SDS011;6040;49.358;11.140;2023-02-28T13:02:42;11.47;;;7.33;;
11960;SDS011;6040;49.358;11.140;2023-02-28T13:05:29;9.73;;;6.60;;
11960;SDS011;6040;49.358;11.140;2023-02-28T13:11:02;19.87;;;12.63;;
11960;SDS011;6040;49.358;11.140;2023-02-28T13:13:29;12.80;;;8.10;;
11960;SDS011;6040;49.358;11.140;2023-02-28T13:15:58;17.83;;;10.77;;
11960;SDS011;6040;49.358;11.140;2023-02-28T13:18:31;9.93;;;6.73;;
11960;SDS011;6040;49.358;11.140;2023-02-28T13:21:02;9.03;;;6.20;;
11960;SDS011;6040;49.358;11.140;2023-02-28T13:23:40;10.50;;;7.63;;
11960;SDS011;6040;49.358;11.140;2023-02-28T13:29:37;8.70;;;6.57;;
11960;SDS011;6040;49.358;11.140;2023-02-28T13:35:12;8.60;;;6.33;;
11960;SDS011;6040;49.358;11.140;2023-02-28T13:37:44;9.67;;;6.47;;
11960;SDS011;6040;49.358;11.140;2023-02-28T13:40:28;9.63;;;6.80;;
11960;SDS011;6040;49.358;11.140;2023-02-28T13:43:01;8.93;;;5.63;;
11960;SDS011;6040;49.358;11.140;2023-02-28T13:45:30;10.77;;;6.07;;
11960;SDS011;6040;49.358;11.140;2023-02-28T13:48:03;8.43;;;6.13;;
11960;SDS011;6040;49.358;11.140;2023-02-28T13:50:32;7.70;;;6.20;;
11960;SDS011;6040;49.358;11.140;2023-02-28T13:53:19;9.17;;;6.60;;
11960;SDS011;6040;49.358;11.140;2023-02-28T13:56:01;9.10;;;6.47;;
11960;SDS011;6040;49.358;11.140;2023-02-28T13:58:40;10.07;;;6.67;;
11960;SDS011;6040;49.358;11.140;2023-02-28T14:01:21;9.97;;;6.47;;
11960;SDS011;6040;49.358;11.140;2023-02-28T14:03:58;7.60;;;5.87;;
11960;SDS011;6040;49.358;11.140;2023-02-28T14:06:55;7.67;;;6.00;;
11960;SDS011;6040;49.358;11.140;2023-02-28T14:09:24;10.23;;;5.73;;
11960;SDS011;6040;49.358;11.140;2023-02-28T14:11:56;7.30;;;5.53;;
11960;SDS011;6040;49.358;11.140;2023-02-28T14:17:24;8.50;;;5.33;;
11960;SDS011;6040;49.358;11.140;2023-02-28T14:19:52;7.80;;;5.63;;
11960;SDS011;6040;49.358;11.140;2023-02-28T14:22:25;8.67;;;6.27;;
11960;SDS011;6040;49.358;11.140;2023-02-28T14:25:18;10.60;;;6.73;;
11960;SDS011;6040;49.358;11.140;2023-02-28T14:27:58;11.87;;;7.07;;
11960;SDS011;6040;49.358;11.140;2023-02-28T14:33:30;9.47;;;6.60;;
11960;SDS011;6040;49.358;11.140;2023-02-28T14:36:16;8.03;;;5.90;;
11960;SDS011;6040;49.358;11.140;2023-02-28T14:38:47;11.03;;;6.87;;
11960;SDS011;6040;49.358;11.140;2023-02-28T14:41:22;9.27;;;6.50;;
11960;SDS011;6040;49.358;11.140;2023-02-28T14:43:55;9.73;;;6.70;;
11960;SDS011;6040;49.358;11.140;2023-02-28T14:46:25;10.10;;;6.90;;
11960;SDS011;6040;49.358;11.140;2023-02-28T14:48:56;11.40;;;7.03;;
11960;SDS011;6040;49.358;11.140;2023-02-28T14:51:23;9.80;;;5.97;;
11960;SDS011;6040;49.358;11.140;2023-02-28T14:53:51;8.23;;;5.90;;
11960;SDS011;6040;49.358;11.140;2023-02-28T14:56:25;10.57;;;6.07;;
11960;SDS011;6040;49.358;11.140;2023-02-28T14:58:56;7.57;;;5.57;;
11960;SDS011;6040;49.358;11.140;2023-02-28T15:01:24;11.37;;;5.87;;
11960;SDS011;6040;49.358;11.140;2023-02-28T15:04:00;12.30;;;6.37;;
11960;SDS011;6040;49.358;11.140;2023-02-28T15:06:29;8.80;;;6.00;;
11960;SDS011;6040;49.358;11.140;2023-02-28T15:09:06;8.47;;;5.47;;
11960;SDS011;6040;49.358;11.140;2023-02-28T15:11:34;9.30;;;6.13;;
11960;SDS011;6040;49.358;11.140;2023-02-28T15:14:02;8.83;;;5.67;;
11960;SDS011;6040;49.358;11.140;2023-02-28T15:16:30;9.97;;;6.30;;
11960;SDS011;6040;49.358;11.140;2023-02-28T15:19:02;11.20;;;6.63;;
11960;SDS011;6040;49.358;11.140;2023-02-28T15:21:33;10.00;;;5.83;;
11960;SDS011;6040;49.358;11.140;2023-02-28T15:24:02;9.77;;;5.87;;
11960;SDS011;6040;49.358;11.140;2023-02-28T15:26:33;7.47;;;5.07;;
11960;SDS011;6040;49.358;11.140;2023-02-28T15:29:03;8.23;;;5.43;;
11960;SDS011;6040;49.358;11.140;2023-02-28T15:31:32;9.07;;;5.80;;
11960;SDS011;6040;49.358;11.140;2023-02-28T15:34:04;10.80;;;6.63;;
11960;SDS011;6040;49.358;11.140;2023-02-28T15:36:33;11.30;;;6.30;;